sensor_id;sensor_type;location;lat;lon;timestamp;pressure;altitude;pressure_sealevel;temperature;humidity
24065;BME280;12258;50.940;5.330;2022-08-21T00:01:03;101341.47;;;19.98;100.00
24065;BME280;12258;50.940;5.330;2022-08-21T00:03:31;101342.09;;;19.95;100.00
24065;BME280;12258;50.940;5.330;2022-08-21T00:05:57;101341.78;;;19.96;100.00
24065;BME280;12258;50.940;5.330;2022-08-21T00:08:22;101338.28;;;19.91;100.00
24065;BME280;12258;50.940;5.330;2022-08-21T00:10:48;101339.59;;;19.80;100.00
24065;BME280;12258;50.940;5.330;2022-08-21T00:13:14;101337.13;;;19.78;100.00
24065;BME280;12258;50.940;5.330;2022-08-21T00:15:41;101337.84;;;19.84;100.00
24065;BME280;12258;50.940;5.330;2022-08-21T00:18:08;101337.44;;;19.77;100.00
24065;BME280;12258;50.940;5.330;2022-08-21T00:20:34;101331.28;;;19.80;100.00
24065;BME280;12258;50.940;5.330;2022-08-21T00:23:00;101335.34;;;19.69;100.00
24065;BME280;12258;50.940;5.330;2022-08-21T00:25:27;101330.00;;;19.72;100.00
24065;BME280;12258;50.940;5.330;2022-08-21T00:27:53;101328.91;;;19.55;100.00
24065;BME280;12258;50.940;5.330;2022-08-21T00:30:19;101335.53;;;19.72;100.00
24065;BME280;12258;50.940;5.330;2022-08-21T00:32:46;101324.84;;;19.66;100.00
24065;BME280;12258;50.940;5.330;2022-08-21T00:35:15;101328.16;;;19.68;100.00
24065;BME280;12258;50.940;5.330;2022-08-21T00:37:41;101325.69;;;19.66;100.00
24065;BME280;12258;50.940;5.330;2022-08-21T00:40:11;101320.09;;;19.53;100.00
24065;BME280;12258;50.940;5.330;2022-08-21T00:42:37;101321.59;;;19.64;100.00
24065;BME280;12258;50.940;5.330;2022-08-21T00:45:04;101319.31;;;19.66;100.00
24065;BME280;12258;50.940;5.330;2022-08-21T00:47:30;101319.88;;;19.49;100.00
24065;BME280;12258;50.940;5.330;2022-08-21T00:49:55;101318.91;;;19.40;100.00
24065;BME280;12258;50.940;5.330;2022-08-21T00:52:24;101306.84;;;19.50;100.00
24065;BME280;12258;50.940;5.330;2022-08-21T00:54:51;101318.00;;;19.45;100.00
24065;BME280;12258;50.940;5.330;2022-08-21T00:57:21;101312.44;;;19.31;100.00
24065;BME280;12258;50.940;5.330;2022-08-21T00:59:49;101310.06;;;19.57;100.00
24065;BME280;12258;50.940;5.330;2022-08-21T01:02:17;101321.53;;;19.50;100.00
24065;BME280;12258;50.940;5.330;2022-08-21T01:04:43;101321.84;;;19.49;100.00
24065;BME280;12258;50.940;5.330;2022-08-21T01:07:09;101316.44;;;19.39;100.00
24065;BME280;12258;50.940;5.330;2022-08-21T01:09:37;101314.13;;;19.46;100.00
24065;BME280;12258;50.940;5.330;2022-08-21T01:12:03;101320.34;;;19.38;100.00
24065;BME280;12258;50.940;5.330;2022-08-21T01:14:29;101323.63;;;19.21;100.00
24065;BME280;12258;50.940;5.330;2022-08-21T01:16:56;101319.91;;;19.31;100.00
24065;BME280;12258;50.940;5.330;2022-08-21T01:19:25;101323.78;;;19.30;100.00
24065;BME280;12258;50.940;5.330;2022-08-21T01:21:51;101324.34;;;19.27;100.00
24065;BME280;12258;50.940;5.330;2022-08-21T01:24:16;101322.28;;;19.19;100.00
24065;BME280;12258;50.940;5.330;2022-08-21T01:26:43;101327.50;;;19.20;100.00
24065;BME280;12258;50.940;5.330;2022-08-21T01:29:12;101331.41;;;19.19;100.00
24065;BME280;12258;50.940;5.330;2022-08-21T01:31:40;101331.94;;;19.03;100.00
24065;BME280;12258;50.940;5.330;2022-08-21T01:34:06;101330.16;;;19.12;100.00
24065;BME280;12258;50.940;5.330;2022-08-21T01:36:32;101317.41;;;19.11;100.00
24065;BME280;12258;50.940;5.330;2022-08-21T01:38:57;101320.78;;;19.08;100.00
24065;BME280;12258;50.940;5.330;2022-08-21T01:41:23;101316.66;;;18.87;100.00
24065;BME280;12258;50.940;5.330;2022-08-21T01:43:49;101314.72;;;19.06;100.00
24065;BME280;12258;50.940;5.330;2022-08-21T01:46:15;101317.84;;;18.99;100.00
24065;BME280;12258;50.940;5.330;2022-08-21T01:48:41;101317.31;;;18.97;100.00
24065;BME280;12258;50.940;5.330;2022-08-21T01:51:07;101313.81;;;18.92;100.00
24065;BME280;12258;50.940;5.330;2022-08-21T01:53:34;101312.38;;;18.94;100.00
24065;BME280;12258;50.940;5.330;2022-08-21T01:56:03;101313.38;;;18.85;100.00
24065;BME280;12258;50.940;5.330;2022-08-21T01:58:29;101308.06;;;18.88;100.00
24065;BME280;12258;50.940;5.330;2022-08-21T02:00:55;101311.06;;;18.92;100.00
24065;BME280;12258;50.940;5.330;2022-08-21T02:03:20;101314.72;;;18.87;100.00
24065;BME280;12258;50.940;5.330;2022-08-21T02:05:46;101317.25;;;18.84;100.00
24065;BME280;12258;50.940;5.330;2022-08-21T02:08:12;101315.00;;;18.86;100.00
24065;BME280;12258;50.940;5.330;2022-08-21T02:10:38;101321.88;;;18.69;100.00
24065;BME280;12258;50.940;5.330;2022-08-21T02:13:04;101321.19;;;18.77;100.00
24065;BME280;12258;50.940;5.330;2022-08-21T02:15:30;101316.44;;;18.83;100.00
24065;BME280;12258;50.940;5.330;2022-08-21T02:17:58;101316.50;;;18.78;100.00
24065;BME280;12258;50.940;5.330;2022-08-21T02:20:31;101311.72;;;18.84;100.00
24065;BME280;12258;50.940;5.330;2022-08-21T02:22:57;101313.41;;;18.61;100.00
24065;BME280;12258;50.940;5.330;2022-08-21T02:25:24;101308.03;;;18.51;100.00
24065;BME280;12258;50.940;5.330;2022-08-21T02:27:51;101311.09;;;18.68;100.00
24065;BME280;12258;50.940;5.330;2022-08-21T02:30:29;101312.41;;;18.76;100.00
24065;BME280;12258;50.940;5.330;2022-08-21T02:32:57;101304.47;;;18.69;100.00
24065;BME280;12258;50.940;5.330;2022-08-21T02:35:23;101305.56;;;18.68;100.00
24065;BME280;12258;50.940;5.330;2022-08-21T02:37:58;101294.47;;;18.49;100.00
24065;BME280;12258;50.940;5.330;2022-08-21T02:40:29;101298.34;;;18.48;100.00
24065;BME280;12258;50.940;5.330;2022-08-21T02:42:56;101302.47;;;18.51;100.00
24065;BME280;12258;50.940;5.330;2022-08-21T02:45:22;101312.06;;;18.58;100.00
24065;BME280;12258;50.940;5.330;2022-08-21T02:47:53;101296.72;;;18.66;100.00
24065;BME280;12258;50.940;5.330;2022-08-21T02:50:25;101301.00;;;18.58;100.00
24065;BME280;12258;50.940;5.330;2022-08-21T02:52:51;101307.66;;;18.57;100.00
24065;BME280;12258;50.940;5.330;2022-08-21T02:55:18;101308.09;;;18.64;100.00
24065;BME280;12258;50.940;5.330;2022-08-21T02:57:44;101305.19;;;18.56;100.00
24065;BME280;12258;50.940;5.330;2022-08-21T03:00:10;101302.63;;;18.59;100.00
24065;BME280;12258;50.940;5.330;2022-08-21T03:02:37;101305.81;;;18.48;100.00
24065;BME280;12258;50.940;5.330;2022-08-21T03:05:03;101303.53;;;18.55;100.00
24065;BME280;12258;50.940;5.330;2022-08-21T03:07:29;101306.59;;;18.53;100.00
24065;BME280;12258;50.940;5.330;2022-08-21T03:09:55;101303.97;;;18.38;100.00
24065;BME280;12258;50.940;5.330;2022-08-21T03:12:20;101306.94;;;18.47;100.00
24065;BME280;12258;50.940;5.330;2022-08-21T03:14:46;101304.13;;;18.52;100.00
24065;BME280;12258;50.940;5.330;2022-08-21T03:17:11;101303.28;;;18.51;100.00
24065;BME280;12258;50.940;5.330;2022-08-21T03:19:36;101299.00;;;18.40;100.00
24065;BME280;12258;50.940;5.330;2022-08-21T03:22:02;101298.66;;;18.47;100.00
24065;BME280;12258;50.940;5.330;2022-08-21T03:24:27;101308.38;;;18.44;100.00
24065;BME280;12258;50.940;5.330;2022-08-21T03:26:53;101297.75;;;18.28;100.00
24065;BME280;12258;50.940;5.330;2022-08-21T03:29:18;101298.22;;;18.11;100.00
24065;BME280;12258;50.940;5.330;2022-08-21T03:31:43;101299.63;;;18.32;100.00
24065;BME280;12258;50.940;5.330;2022-08-21T03:34:09;101304.31;;;18.32;100.00
24065;BME280;12258;50.940;5.330;2022-08-21T03:36:35;101300.56;;;17.99;100.00
24065;BME280;12258;50.940;5.330;2022-08-21T03:39:01;101298.63;;;17.71;100.00
24065;BME280;12258;50.940;5.330;2022-08-21T03:41:28;101301.41;;;18.00;100.00
24065;BME280;12258;50.940;5.330;2022-08-21T03:43:53;101301.88;;;18.07;100.00
24065;BME280;12258;50.940;5.330;2022-08-21T03:46:19;101299.44;;;18.24;100.00
24065;BME280;12258;50.940;5.330;2022-08-21T03:48:45;101308.69;;;18.14;100.00
24065;BME280;12258;50.940;5.330;2022-08-21T03:51:10;101302.34;;;17.90;100.00
24065;BME280;12258;50.940;5.330;2022-08-21T03:53:35;101300.75;;;17.79;100.00
24065;BME280;12258;50.940;5.330;2022-08-21T03:56:02;101295.44;;;17.88;100.00
24065;BME280;12258;50.940;5.330;2022-08-21T03:58:28;101300.19;;;17.82;100.00
24065;BME280;12258;50.940;5.330;2022-08-21T04:00:57;101293.09;;;17.71;100.00
24065;BME280;12258;50.940;5.330;2022-08-21T04:03:23;101295.22;;;17.79;100.00
24065;BME280;12258;50.940;5.330;2022-08-21T04:05:49;101289.16;;;17.82;100.00
24065;BME280;12258;50.940;5.330;2022-08-21T04:08:15;101296.00;;;18.13;100.00
24065;BME280;12258;50.940;5.330;2022-08-21T04:10:46;101296.75;;;17.67;100.00
24065;BME280;12258;50.940;5.330;2022-08-21T04:13:12;101294.50;;;17.35;100.00
24065;BME280;12258;50.940;5.330;2022-08-21T04:15:37;101288.97;;;17.35;100.00
24065;BME280;12258;50.940;5.330;2022-08-21T04:18:04;101291.84;;;17.87;100.00
24065;BME280;12258;50.940;5.330;2022-08-21T04:20:30;101289.84;;;17.69;100.00
24065;BME280;12258;50.940;5.330;2022-08-21T04:22:56;101291.63;;;18.07;100.00
24065;BME280;12258;50.940;5.330;2022-08-21T04:25:23;101281.16;;;18.04;100.00
24065;BME280;12258;50.940;5.330;2022-08-21T04:27:50;101290.69;;;17.93;100.00
24065;BME280;12258;50.940;5.330;2022-08-21T04:30:16;101293.97;;;17.95;100.00
24065;BME280;12258;50.940;5.330;2022-08-21T04:32:47;101292.88;;;17.34;100.00
24065;BME280;12258;50.940;5.330;2022-08-21T04:35:14;101308.28;;;17.74;100.00
24065;BME280;12258;50.940;5.330;2022-08-21T04:37:41;101311.78;;;17.56;100.00
24065;BME280;12258;50.940;5.330;2022-08-21T04:40:06;101304.59;;;17.55;100.00
24065;BME280;12258;50.940;5.330;2022-08-21T04:42:41;101300.06;;;17.92;100.00
24065;BME280;12258;50.940;5.330;2022-08-21T04:45:09;101303.66;;;17.69;100.00
24065;BME280;12258;50.940;5.330;2022-08-21T04:47:34;101299.69;;;17.41;100.00
24065;BME280;12258;50.940;5.330;2022-08-21T04:50:00;101311.53;;;17.52;100.00
24065;BME280;12258;50.940;5.330;2022-08-21T04:52:25;101310.22;;;17.73;100.00
24065;BME280;12258;50.940;5.330;2022-08-21T04:54:51;101311.56;;;17.47;100.00
24065;BME280;12258;50.940;5.330;2022-08-21T04:57:17;101317.38;;;17.40;100.00
24065;BME280;12258;50.940;5.330;2022-08-21T04:59:48;101316.88;;;17.00;100.00
24065;BME280;12258;50.940;5.330;2022-08-21T05:02:15;101315.41;;;17.51;100.00
24065;BME280;12258;50.940;5.330;2022-08-21T05:04:51;101315.94;;;17.14;100.00
24065;BME280;12258;50.940;5.330;2022-08-21T05:07:23;101318.00;;;16.94;100.00
24065;BME280;12258;50.940;5.330;2022-08-21T05:09:52;101319.97;;;17.27;100.00
24065;BME280;12258;50.940;5.330;2022-08-21T05:12:17;101318.91;;;17.23;100.00
24065;BME280;12258;50.940;5.330;2022-08-21T05:14:43;101321.09;;;17.26;100.00
24065;BME280;12258;50.940;5.330;2022-08-21T05:17:10;101316.84;;;17.05;100.00
24065;BME280;12258;50.940;5.330;2022-08-21T05:19:36;101318.00;;;16.94;100.00
24065;BME280;12258;50.940;5.330;2022-08-21T05:22:01;101328.22;;;17.32;100.00
24065;BME280;12258;50.940;5.330;2022-08-21T05:24:28;101321.91;;;17.31;100.00
24065;BME280;12258;50.940;5.330;2022-08-21T05:26:53;101328.81;;;17.29;100.00
24065;BME280;12258;50.940;5.330;2022-08-21T05:29:18;101320.31;;;17.59;100.00
24065;BME280;12258;50.940;5.330;2022-08-21T05:31:46;101316.56;;;17.40;100.00
24065;BME280;12258;50.940;5.330;2022-08-21T05:34:13;101319.09;;;17.36;100.00
24065;BME280;12258;50.940;5.330;2022-08-21T05:36:39;101316.56;;;17.45;100.00
24065;BME280;12258;50.940;5.330;2022-08-21T05:39:04;101319.03;;;17.41;100.00
24065;BME280;12258;50.940;5.330;2022-08-21T05:41:29;101309.44;;;17.34;100.00
24065;BME280;12258;50.940;5.330;2022-08-21T05:43:55;101319.03;;;17.41;100.00
24065;BME280;12258;50.940;5.330;2022-08-21T05:46:21;101328.06;;;17.57;100.00
24065;BME280;12258;50.940;5.330;2022-08-21T05:48:46;101329.56;;;17.73;100.00
24065;BME280;12258;50.940;5.330;2022-08-21T05:51:14;101329.69;;;17.58;100.00
24065;BME280;12258;50.940;5.330;2022-08-21T05:53:41;101338.53;;;17.60;100.00
24065;BME280;12258;50.940;5.330;2022-08-21T05:56:10;101347.22;;;17.38;100.00
24065;BME280;12258;50.940;5.330;2022-08-21T05:58:36;101334.66;;;17.90;100.00
24065;BME280;12258;50.940;5.330;2022-08-21T06:01:03;101339.06;;;18.19;100.00
24065;BME280;12258;50.940;5.330;2022-08-21T06:03:33;101340.94;;;18.00;100.00
24065;BME280;12258;50.940;5.330;2022-08-21T06:06:00;101337.53;;;18.08;100.00
24065;BME280;12258;50.940;5.330;2022-08-21T06:08:26;101335.63;;;17.75;100.00
24065;BME280;12258;50.940;5.330;2022-08-21T06:10:54;101343.31;;;18.12;100.00
24065;BME280;12258;50.940;5.330;2022-08-21T06:13:20;101338.38;;;18.04;100.00
24065;BME280;12258;50.940;5.330;2022-08-21T06:15:47;101342.41;;;18.16;100.00
24065;BME280;12258;50.940;5.330;2022-08-21T06:18:13;101346.47;;;18.00;100.00
24065;BME280;12258;50.940;5.330;2022-08-21T06:20:39;101349.38;;;18.37;100.00
24065;BME280;12258;50.940;5.330;2022-08-21T06:23:05;101346.13;;;18.07;100.00
24065;BME280;12258;50.940;5.330;2022-08-21T06:25:31;101348.09;;;18.01;100.00
24065;BME280;12258;50.940;5.330;2022-08-21T06:28:08;101343.69;;;18.24;100.00
24065;BME280;12258;50.940;5.330;2022-08-21T06:30:36;101346.13;;;18.30;100.00
24065;BME280;12258;50.940;5.330;2022-08-21T06:33:03;101343.84;;;18.37;100.00
24065;BME280;12258;50.940;5.330;2022-08-21T06:35:29;101340.75;;;18.44;100.00
24065;BME280;12258;50.940;5.330;2022-08-21T06:37:55;101351.75;;;18.49;100.00
24065;BME280;12258;50.940;5.330;2022-08-21T06:40:21;101356.16;;;18.92;100.00
24065;BME280;12258;50.940;5.330;2022-08-21T06:42:47;101357.25;;;18.72;100.00
24065;BME280;12258;50.940;5.330;2022-08-21T06:45:13;101352.84;;;18.71;100.00
24065;BME280;12258;50.940;5.330;2022-08-21T06:47:38;101353.72;;;19.09;100.00
24065;BME280;12258;50.940;5.330;2022-08-21T06:50:05;101351.72;;;19.33;100.00
24065;BME280;12258;50.940;5.330;2022-08-21T06:52:33;101348.25;;;19.23;100.00
24065;BME280;12258;50.940;5.330;2022-08-21T06:54:59;101360.72;;;19.44;100.00
24065;BME280;12258;50.940;5.330;2022-08-21T06:57:25;101355.41;;;19.61;100.00
24065;BME280;12258;50.940;5.330;2022-08-21T06:59:50;101367.63;;;19.92;100.00
24065;BME280;12258;50.940;5.330;2022-08-21T07:02:16;101365.16;;;19.77;100.00
24065;BME280;12258;50.940;5.330;2022-08-21T07:04:42;101358.84;;;20.03;100.00
24065;BME280;12258;50.940;5.330;2022-08-21T07:07:07;101369.44;;;20.47;100.00
24065;BME280;12258;50.940;5.330;2022-08-21T07:09:33;101371.78;;;20.40;100.00
24065;BME280;12258;50.940;5.330;2022-08-21T07:11:58;101366.25;;;20.08;100.00
24065;BME280;12258;50.940;5.330;2022-08-21T07:14:24;101359.31;;;21.05;100.00
24065;BME280;12258;50.940;5.330;2022-08-21T07:16:50;101355.19;;;20.89;100.00
24065;BME280;12258;50.940;5.330;2022-08-21T07:19:17;101346.72;;;21.79;100.00
24065;BME280;12258;50.940;5.330;2022-08-21T07:21:43;101350.00;;;22.12;100.00
24065;BME280;12258;50.940;5.330;2022-08-21T07:24:08;101347.72;;;23.01;100.00
24065;BME280;12258;50.940;5.330;2022-08-21T07:26:34;101356.00;;;23.31;100.00
24065;BME280;12258;50.940;5.330;2022-08-21T07:29:00;101354.13;;;22.93;100.00
24065;BME280;12258;50.940;5.330;2022-08-21T07:31:28;101358.97;;;22.39;100.00
24065;BME280;12258;50.940;5.330;2022-08-21T07:33:53;101360.88;;;23.17;100.00
24065;BME280;12258;50.940;5.330;2022-08-21T07:36:19;101359.38;;;24.05;100.00
24065;BME280;12258;50.940;5.330;2022-08-21T07:38:45;101360.00;;;24.19;100.00
24065;BME280;12258;50.940;5.330;2022-08-21T07:41:37;101358.41;;;23.92;100.00
24065;BME280;12258;50.940;5.330;2022-08-21T07:44:03;101356.94;;;24.04;100.00
24065;BME280;12258;50.940;5.330;2022-08-21T07:46:28;101363.44;;;24.25;100.00
24065;BME280;12258;50.940;5.330;2022-08-21T07:48:53;101365.91;;;24.64;100.00
24065;BME280;12258;50.940;5.330;2022-08-21T07:51:22;101363.66;;;24.49;100.00
24065;BME280;12258;50.940;5.330;2022-08-21T07:53:53;101357.53;;;24.93;100.00
24065;BME280;12258;50.940;5.330;2022-08-21T07:56:19;101361.69;;;24.49;100.00
24065;BME280;12258;50.940;5.330;2022-08-21T07:58:45;101362.34;;;24.00;100.00
24065;BME280;12258;50.940;5.330;2022-08-21T08:01:11;101350.06;;;25.26;100.00
24065;BME280;12258;50.940;5.330;2022-08-21T08:03:37;101349.13;;;25.63;100.00
24065;BME280;12258;50.940;5.330;2022-08-21T08:06:04;101355.38;;;25.48;100.00
24065;BME280;12258;50.940;5.330;2022-08-21T08:08:30;101354.38;;;26.42;100.00
24065;BME280;12258;50.940;5.330;2022-08-21T08:10:56;101357.75;;;25.38;100.00
24065;BME280;12258;50.940;5.330;2022-08-21T08:13:23;101364.09;;;27.05;100.00
24065;BME280;12258;50.940;5.330;2022-08-21T08:15:49;101357.75;;;25.58;98.31
24065;BME280;12258;50.940;5.330;2022-08-21T08:18:14;101355.28;;;24.49;100.00
24065;BME280;12258;50.940;5.330;2022-08-21T08:20:40;101362.53;;;25.90;99.99
24065;BME280;12258;50.940;5.330;2022-08-21T08:23:07;101358.59;;;26.48;97.31
24065;BME280;12258;50.940;5.330;2022-08-21T08:25:32;101361.50;;;26.39;94.82
24065;BME280;12258;50.940;5.330;2022-08-21T08:28:00;101352.28;;;26.39;93.02
24065;BME280;12258;50.940;5.330;2022-08-21T08:30:25;101352.59;;;26.13;97.11
24065;BME280;12258;50.940;5.330;2022-08-21T08:32:51;101359.88;;;27.35;93.19
24065;BME280;12258;50.940;5.330;2022-08-21T08:35:17;101345.81;;;27.23;89.94
24065;BME280;12258;50.940;5.330;2022-08-21T08:37:43;101346.81;;;28.41;87.40
24065;BME280;12258;50.940;5.330;2022-08-21T08:40:25;101342.09;;;28.29;82.67
24065;BME280;12258;50.940;5.330;2022-08-21T08:42:54;101336.25;;;27.91;82.97
24065;BME280;12258;50.940;5.330;2022-08-21T08:45:21;101325.78;;;28.19;79.49
24065;BME280;12258;50.940;5.330;2022-08-21T08:47:55;101326.91;;;29.12;81.11
24065;BME280;12258;50.940;5.330;2022-08-21T08:50:49;101317.44;;;28.38;77.23
24065;BME280;12258;50.940;5.330;2022-08-21T08:53:50;101319.53;;;28.72;77.99
24065;BME280;12258;50.940;5.330;2022-08-21T08:56:22;101315.34;;;28.66;73.31
24065;BME280;12258;50.940;5.330;2022-08-21T08:58:50;101324.69;;;29.21;77.20
24065;BME280;12258;50.940;5.330;2022-08-21T09:01:19;101314.56;;;29.73;72.35
24065;BME280;12258;50.940;5.330;2022-08-21T09:03:46;101321.34;;;28.80;71.65
24065;BME280;12258;50.940;5.330;2022-08-21T09:06:44;101318.63;;;28.68;70.18
24065;BME280;12258;50.940;5.330;2022-08-21T09:09:41;101314.03;;;29.49;74.09
24065;BME280;12258;50.940;5.330;2022-08-21T09:15:51;101314.50;;;27.21;78.26
24065;BME280;12258;50.940;5.330;2022-08-21T09:18:48;101304.56;;;28.37;69.90
24065;BME280;12258;50.940;5.330;2022-08-21T09:21:30;101301.88;;;29.83;69.00
24065;BME280;12258;50.940;5.330;2022-08-21T09:24:18;101297.88;;;29.65;68.65
24065;BME280;12258;50.940;5.330;2022-08-21T09:27:00;101301.22;;;29.51;66.07
24065;BME280;12258;50.940;5.330;2022-08-21T09:29:30;101299.16;;;29.29;66.81
24065;BME280;12258;50.940;5.330;2022-08-21T09:31:56;101291.59;;;28.17;69.33
24065;BME280;12258;50.940;5.330;2022-08-21T09:34:28;101294.03;;;28.19;71.45
24065;BME280;12258;50.940;5.330;2022-08-21T09:36:54;101304.28;;;28.73;69.64
24065;BME280;12258;50.940;5.330;2022-08-21T09:39:29;101297.16;;;29.49;67.83
24065;BME280;12258;50.940;5.330;2022-08-21T09:42:03;101302.34;;;30.07;64.97
24065;BME280;12258;50.940;5.330;2022-08-21T09:44:33;101300.38;;;29.13;63.42
24065;BME280;12258;50.940;5.330;2022-08-21T09:47:01;101308.56;;;29.56;64.10
24065;BME280;12258;50.940;5.330;2022-08-21T09:49:37;101291.66;;;30.39;61.67
24065;BME280;12258;50.940;5.330;2022-08-21T09:52:19;101296.69;;;31.01;61.64
24065;BME280;12258;50.940;5.330;2022-08-21T09:54:51;101294.03;;;30.63;58.31
24065;BME280;12258;50.940;5.330;2022-08-21T09:57:26;101296.88;;;30.63;58.76
24065;BME280;12258;50.940;5.330;2022-08-21T10:00:29;101296.84;;;30.86;60.50
24065;BME280;12258;50.940;5.330;2022-08-21T10:03:20;101292.25;;;30.52;61.33
24065;BME280;12258;50.940;5.330;2022-08-21T10:08:20;101291.31;;;31.52;59.55
24065;BME280;12258;50.940;5.330;2022-08-21T10:10:50;101286.19;;;31.31;55.39
24065;BME280;12258;50.940;5.330;2022-08-21T10:22:09;101283.50;;;31.75;51.60
24065;BME280;12258;50.940;5.330;2022-08-21T10:24:52;101279.41;;;30.32;56.04
24065;BME280;12258;50.940;5.330;2022-08-21T10:30:00;101289.50;;;31.07;54.80
24065;BME280;12258;50.940;5.330;2022-08-21T10:37:56;101282.50;;;29.40;57.59
24065;BME280;12258;50.940;5.330;2022-08-21T10:43:08;101274.81;;;31.24;56.30
24065;BME280;12258;50.940;5.330;2022-08-21T10:46:15;101260.75;;;30.72;52.68
24065;BME280;12258;50.940;5.330;2022-08-21T10:48:48;101272.78;;;31.25;49.16
24065;BME280;12258;50.940;5.330;2022-08-21T10:56:32;101284.63;;;31.34;50.81
24065;BME280;12258;50.940;5.330;2022-08-21T11:01:44;101272.56;;;32.54;51.41
24065;BME280;12258;50.940;5.330;2022-08-21T11:04:24;101283.84;;;32.07;52.35
24065;BME280;12258;50.940;5.330;2022-08-21T11:06:58;101264.22;;;30.62;53.57
24065;BME280;12258;50.940;5.330;2022-08-21T11:09:26;101280.88;;;31.93;52.67
24065;BME280;12258;50.940;5.330;2022-08-21T11:12:20;101263.88;;;31.89;50.81
24065;BME280;12258;50.940;5.330;2022-08-21T11:17:22;101261.44;;;33.64;47.76
24065;BME280;12258;50.940;5.330;2022-08-21T11:20:05;101260.94;;;32.19;48.56
24065;BME280;12258;50.940;5.330;2022-08-21T11:22:35;101265.69;;;32.55;46.85
24065;BME280;12258;50.940;5.330;2022-08-21T11:27:46;101270.44;;;34.09;45.87
24065;BME280;12258;50.940;5.330;2022-08-21T11:30:14;101267.31;;;33.17;47.43
24065;BME280;12258;50.940;5.330;2022-08-21T11:33:05;101262.34;;;33.00;46.07
24065;BME280;12258;50.940;5.330;2022-08-21T11:38:41;101258.69;;;34.73;45.32
24065;BME280;12258;50.940;5.330;2022-08-21T11:44:14;101254.34;;;33.13;45.55
24065;BME280;12258;50.940;5.330;2022-08-21T11:46:58;101250.59;;;34.19;44.54
24065;BME280;12258;50.940;5.330;2022-08-21T11:49:34;101245.75;;;34.16;42.40
24065;BME280;12258;50.940;5.330;2022-08-21T11:52:08;101253.78;;;33.82;43.63
24065;BME280;12258;50.940;5.330;2022-08-21T11:59:40;101254.91;;;33.50;42.25
24065;BME280;12258;50.940;5.330;2022-08-21T12:02:16;101257.81;;;33.88;42.05
24065;BME280;12258;50.940;5.330;2022-08-21T12:04:53;101256.19;;;33.73;41.62
24065;BME280;12258;50.940;5.330;2022-08-21T12:07:31;101251.00;;;34.35;41.33
24065;BME280;12258;50.940;5.330;2022-08-21T12:09:58;101253.06;;;34.49;42.69
24065;BME280;12258;50.940;5.330;2022-08-21T12:12:31;101261.16;;;34.43;43.60
24065;BME280;12258;50.940;5.330;2022-08-21T12:15:27;101268.41;;;34.20;41.77
24065;BME280;12258;50.940;5.330;2022-08-21T12:18:06;101259.50;;;34.32;41.32
24065;BME280;12258;50.940;5.330;2022-08-21T12:25:43;101249.72;;;32.33;44.76
24065;BME280;12258;50.940;5.330;2022-08-21T12:28:12;101257.59;;;32.53;44.35
24065;BME280;12258;50.940;5.330;2022-08-21T12:30:41;101252.25;;;32.41;44.40
24065;BME280;12258;50.940;5.330;2022-08-21T12:36:06;101242.88;;;34.27;41.74
24065;BME280;12258;50.940;5.330;2022-08-21T12:38:45;101240.28;;;33.37;42.16
24065;BME280;12258;50.940;5.330;2022-08-21T12:41:18;101240.00;;;33.81;42.24
24065;BME280;12258;50.940;5.330;2022-08-21T12:43:58;101245.97;;;35.23;42.17
24065;BME280;12258;50.940;5.330;2022-08-21T12:46:32;101234.75;;;33.83;39.98
24065;BME280;12258;50.940;5.330;2022-08-21T12:49:14;101248.53;;;34.65;39.78
24065;BME280;12258;50.940;5.330;2022-08-21T12:54:23;101247.34;;;34.31;41.07
24065;BME280;12258;50.940;5.330;2022-08-21T12:56:57;101243.31;;;34.08;39.71
24065;BME280;12258;50.940;5.330;2022-08-21T12:59:23;101243.22;;;34.92;40.62
24065;BME280;12258;50.940;5.330;2022-08-21T13:01:50;101225.38;;;34.84;39.71
24065;BME280;12258;50.940;5.330;2022-08-21T13:04:21;101231.47;;;34.83;39.30
24065;BME280;12258;50.940;5.330;2022-08-21T13:06:49;101236.50;;;35.55;38.75
24065;BME280;12258;50.940;5.330;2022-08-21T13:09:20;101238.00;;;35.73;38.32
24065;BME280;12258;50.940;5.330;2022-08-21T13:11:49;101237.63;;;34.15;37.15
24065;BME280;12258;50.940;5.330;2022-08-21T13:14:34;101241.66;;;34.35;38.08
24065;BME280;12258;50.940;5.330;2022-08-21T13:17:04;101235.91;;;33.54;37.09
24065;BME280;12258;50.940;5.330;2022-08-21T13:19:31;101233.91;;;34.84;37.70
24065;BME280;12258;50.940;5.330;2022-08-21T13:21:57;101239.38;;;35.44;37.93
24065;BME280;12258;50.940;5.330;2022-08-21T13:24:28;101236.41;;;34.37;37.38
24065;BME280;12258;50.940;5.330;2022-08-21T13:26:55;101230.25;;;34.98;37.29
24065;BME280;12258;50.940;5.330;2022-08-21T13:29:27;101228.47;;;35.36;37.47
24065;BME280;12258;50.940;5.330;2022-08-21T13:31:55;101227.50;;;33.92;38.22
24065;BME280;12258;50.940;5.330;2022-08-21T13:34:23;101226.28;;;34.08;39.69
24065;BME280;12258;50.940;5.330;2022-08-21T13:36:52;101230.34;;;34.21;38.59
24065;BME280;12258;50.940;5.330;2022-08-21T13:39:20;101235.56;;;34.57;37.17
24065;BME280;12258;50.940;5.330;2022-08-21T13:41:48;101236.81;;;34.35;37.66
24065;BME280;12258;50.940;5.330;2022-08-21T13:44:18;101229.44;;;33.67;39.54
24065;BME280;12258;50.940;5.330;2022-08-21T13:46:44;101239.94;;;33.49;41.07
24065;BME280;12258;50.940;5.330;2022-08-21T13:49:14;101225.84;;;33.84;39.04
24065;BME280;12258;50.940;5.330;2022-08-21T13:51:41;101224.25;;;34.22;38.74
24065;BME280;12258;50.940;5.330;2022-08-21T13:54:23;101229.88;;;33.90;39.74